Time;durP1;ratioP1;P1;durP2;ratioP2;P2;SDS_P1;SDS_P2;PMS_P1;PMS_P2;Temp;Humidity;BMP_temperature;BMP_pressure;BME280_temperature;BME280_humidity;BME280_pressure;Samples;Min_cycle;Max_cycle;Signal;HPM_P1;HPM_P2
2021/12/31 00:00:17;;;;;;;7.30;3.00;;;;;;;5.77;100.00;99115.04;101413;1309;72059;-67
2021/12/31 00:03:11;;;;;;;6.60;2.70;;;;;;;5.79;100.00;99120.00;101346;1309;59393;-68
2021/12/31 00:05:59;;;;;;;6.40;2.50;;;;;;;5.83;100.00;99119.59;101128;1309;59749;-66
2021/12/31 00:08:48;;;;;;;7.30;3.00;;;;;;;5.87;100.00;99122.45;100659;1317;72869;-67
2021/12/31 00:11:38;;;;;;;7.50;2.50;;;;;;;5.89;100.00;99111.01;101271;1309;65858;-68
2021/12/31 00:14:26;;;;;;;7.60;3.00;;;;;;;5.91;100.00;99106.27;101348;1310;73173;-67
2021/12/31 00:17:15;;;;;;;6.90;2.80;;;;;;;5.92;100.00;99098.27;101069;1314;59403;-67
2021/12/31 00:20:12;;;;;;;7.20;2.50;;;;;;;5.95;100.00;99106.02;101443;1310;59320;-67
2021/12/31 00:23:09;;;;;;;6.00;2.20;;;;;;;5.97;100.00;99099.17;101542;1309;71392;-67
2021/12/31 00:25:58;;;;;;;6.60;2.60;;;;;;;6.00;100.00;99106.59;101326;1309;67932;-67
2021/12/31 00:28:46;;;;;;;6.10;2.40;;;;;;;6.01;100.00;99098.36;101317;1312;73060;-67
2021/12/31 00:31:35;;;;;;;6.40;2.40;;;;;;;6.04;100.00;99095.52;101062;1312;60175;-67
2021/12/31 00:34:24;;;;;;;6.00;2.00;;;;;;;6.06;100.00;99090.97;101185;1313;60705;-67
2021/12/31 00:37:24;;;;;;;6.40;2.40;;;;;;;6.07;100.00;99092.65;100903;1309;72513;-67
2021/12/31 00:40:16;;;;;;;7.00;2.40;;;;;;;6.09;100.00;99107.66;101298;1310;68215;-67
2021/12/31 00:43:10;;;;;;;5.70;2.10;;;;;;;6.12;100.00;99113.23;101226;1310;71428;-68
2021/12/31 00:46:02;;;;;;;6.00;2.30;;;;;;;6.14;100.00;99110.77;101179;1313;59284;-68
2021/12/31 00:48:50;;;;;;;5.60;1.70;;;;;;;6.16;100.00;99107.15;101266;1310;59563;-68
2021/12/31 00:51:39;;;;;;;6.00;1.90;;;;;;;6.17;100.00;99104.39;101080;1312;71705;-68
2021/12/31 00:54:28;;;;;;;6.30;2.30;;;;;;;6.20;100.00;99109.85;101385;1310;68395;-68
2021/12/31 00:57:17;;;;;;;5.90;1.70;;;;;;;6.21;100.00;99109.19;100906;1313;71950;-68
2021/12/31 01:00:09;;;;;;;6.40;1.80;;;;;;;6.24;100.00;99119.02;101139;1316;59313;-68
2021/12/31 01:02:58;;;;;;;6.20;1.80;;;;;;;6.26;100.00;99126.31;101414;1316;60732;-68
2021/12/31 01:05:46;;;;;;;6.20;1.90;;;;;;;6.28;100.00;99119.77;101170;1313;72914;-70
2021/12/31 01:08:35;;;;;;;5.40;1.80;;;;;;;6.31;100.00;99128.77;101412;1310;67039;-68
2021/12/31 01:11:24;;;;;;;5.80;1.80;;;;;;;6.33;100.00;99131.58;101549;1310;72651;-68
2021/12/31 01:20:38;;;;;;;5.40;1.70;;;;;;;6.43;100.00;99138.39;101545;1309;72147;-68
2021/12/31 01:23:27;;;;;;;5.50;1.80;;;;;;;6.46;100.00;99142.98;100993;1316;66965;-68
2021/12/31 01:26:16;;;;;;;5.80;1.80;;;;;;;6.46;100.00;99137.80;101013;1318;74676;-68
2021/12/31 01:29:05;;;;;;;6.10;2.10;;;;;;;6.49;100.00;99135.48;100972;1313;59298;-68
2021/12/31 01:31:55;;;;;;;6.00;2.30;;;;;;;6.50;100.00;99128.19;100811;1312;60705;-68
2021/12/31 01:34:45;;;;;;;6.90;2.00;;;;;;;6.53;100.00;99133.10;101054;1312;72599;-68
2021/12/31 01:37:34;;;;;;;5.60;2.00;;;;;;;6.56;100.00;99131.63;100837;1312;68458;-67
2021/12/31 01:40:23;;;;;;;5.90;2.10;;;;;;;6.57;100.00;99127.70;101154;1318;74748;-69
2021/12/31 01:43:12;;;;;;;6.00;2.20;;;;;;;6.58;100.00;99124.94;100870;1311;59717;-68
2021/12/31 01:46:10;;;;;;;5.50;1.80;;;;;;;6.59;100.00;99127.49;100574;1315;59562;-68
2021/12/31 01:49:02;;;;;;;5.60;1.80;;;;;;;6.60;100.00;99132.74;100844;1316;71099;-68
2021/12/31 01:51:51;;;;;;;6.00;2.10;;;;;;;6.60;100.00;99125.66;100776;1317;67927;-67
2021/12/31 01:54:39;;;;;;;5.70;1.90;;;;;;;6.62;100.00;99127.78;101406;1312;70831;-66
2021/12/31 01:57:42;;;;;;;5.30;1.70;;;;;;;6.64;100.00;99124.27;100800;1316;59608;-67
2021/12/31 02:00:31;;;;;;;5.30;1.90;;;;;;;6.67;100.00;99120.26;101069;1316;59374;-66
2021/12/31 02:03:24;;;;;;;5.80;1.90;;;;;;;6.68;100.00;99125.25;100961;1318;70053;-66
2021/12/31 02:06:13;;;;;;;5.40;1.80;;;;;;;6.70;100.00;99122.13;101170;1316;67911;-67
2021/12/31 02:09:05;;;;;;;5.40;1.70;;;;;;;6.72;100.00;99119.46;101065;1311;71820;-67
2021/12/31 02:11:55;;;;;;;5.10;1.60;;;;;;;6.76;100.00;99126.91;101258;1313;59540;-67
2021/12/31 02:14:45;;;;;;;5.20;1.70;;;;;;;6.79;100.00;99130.91;101090;1312;59427;-67
2021/12/31 02:17:33;;;;;;;5.30;1.60;;;;;;;6.82;100.00;99130.00;101381;1316;71467;-67
2021/12/31 02:20:34;;;;;;;6.40;1.80;;;;;;;6.86;100.00;99132.52;101538;1309;66939;-67
2021/12/31 02:23:27;;;;;;;7.10;1.70;;;;;;;6.89;100.00;99129.87;101380;1313;72666;-67
2021/12/31 02:26:15;;;;;;;5.00;1.60;;;;;;;6.92;100.00;99137.54;101497;1310;59390;-67
2021/12/31 02:29:04;;;;;;;5.10;1.50;;;;;;;6.95;100.00;99135.21;101617;1309;59387;-69
2021/12/31 02:31:53;;;;;;;4.70;1.20;;;;;;;6.97;100.00;99138.70;101557;1313;72234;-67
2021/12/31 02:34:42;;;;;;;5.40;1.60;;;;;;;6.99;100.00;99138.59;101355;1313;68410;-67
2021/12/31 02:37:32;;;;;;;5.80;1.80;;;;;;;7.02;100.00;99139.42;100897;1313;73582;-67
2021/12/31 02:40:21;;;;;;;6.30;1.70;;;;;;;7.04;100.00;99138.88;100886;1311;59862;-67
2021/12/31 02:43:10;;;;;;;5.20;1.40;;;;;;;7.06;100.00;99145.27;101242;1313;59418;-67
2021/12/31 02:46:00;;;;;;;5.50;1.70;;;;;;;7.08;100.00;99147.01;101491;1313;71372;-68
2021/12/31 02:48:55;;;;;;;4.60;1.30;;;;;;;7.12;100.00;99153.30;101102;1309;66934;-68
2021/12/31 02:51:44;;;;;;;5.30;1.40;;;;;;;7.14;100.00;99157.71;101242;1310;71845;-67
2021/12/31 02:54:37;;;;;;;5.10;1.60;;;;;;;7.15;100.00;99150.71;101221;1313;59400;-67
2021/12/31 02:57:26;;;;;;;5.30;1.40;;;;;;;7.16;100.00;99148.89;101414;1311;60668;-67
2021/12/31 03:00:15;;;;;;;4.60;1.20;;;;;;;7.19;100.00;99152.96;101146;1316;74355;-67
2021/12/31 03:03:07;;;;;;;5.90;1.70;;;;;;;7.20;100.00;99146.15;101498;1310;66923;-67
2021/12/31 03:05:57;;;;;;;5.20;1.40;;;;;;;7.20;100.00;99143.30;101007;1317;73267;-67
2021/12/31 03:08:48;;;;;;;5.00;1.60;;;;;;;7.20;100.00;99145.45;101032;1317;59394;-67
2021/12/31 03:11:38;;;;;;;5.40;1.80;;;;;;;7.20;100.00;99160.45;101618;1314;59345;-67
2021/12/31 03:14:29;;;;;;;5.20;1.60;;;;;;;7.22;100.00;99160.30;101165;1309;72557;-67
2021/12/31 03:17:19;;;;;;;5.30;1.60;;;;;;;7.22;100.00;99157.26;101056;1315;66795;-67
2021/12/31 03:20:14;;;;;;;5.30;1.60;;;;;;;7.21;100.00;99154.85;101310;1317;72101;-67
2021/12/31 03:23:04;;;;;;;5.70;1.70;;;;;;;7.21;100.00;99150.61;101499;1316;59397;-67
2021/12/31 03:25:53;;;;;;;5.60;1.70;;;;;;;7.22;100.00;99153.19;101273;1309;59572;-67
2021/12/31 03:28:42;;;;;;;5.60;1.90;;;;;;;7.23;100.00;99152.83;101134;1310;72840;-67
2021/12/31 03:31:31;;;;;;;5.60;1.80;;;;;;;7.24;100.00;99149.69;100953;1316;66828;-67
2021/12/31 03:34:20;;;;;;;5.40;1.60;;;;;;;7.25;100.00;99146.41;100944;1309;73313;-67
2021/12/31 03:37:09;;;;;;;4.90;1.40;;;;;;;7.26;100.00;99143.05;101182;1316;59926;-68
2021/12/31 03:39:57;;;;;;;5.50;1.60;;;;;;;7.26;100.00;99138.25;100865;1312;61020;-68
2021/12/31 03:42:45;;;;;;;6.70;2.00;;;;;;;7.28;100.00;99138.83;100959;1317;71417;-68
2021/12/31 03:45:36;;;;;;;5.80;1.80;;;;;;;7.30;100.00;99135.29;100843;1313;68380;-68
2021/12/31 03:48:25;;;;;;;5.60;1.60;;;;;;;7.31;100.00;99136.04;100999;1310;71801;-67
2021/12/31 03:51:13;;;;;;;5.40;1.60;;;;;;;7.32;100.00;99136.35;101200;1312;59321;-67
2021/12/31 03:54:02;;;;;;;5.30;1.60;;;;;;;7.34;100.00;99140.27;101053;1309;59365;-68
2021/12/31 03:56:51;;;;;;;5.80;2.20;;;;;;;7.36;100.00;99141.00;100949;1316;72255;-67
2021/12/31 03:59:39;;;;;;;5.70;2.10;;;;;;;7.37;100.00;99145.16;100949;1316;66934;-67
2021/12/31 04:02:28;;;;;;;5.70;1.70;;;;;;;7.38;100.00;99143.34;101278;1313;71631;-68
2021/12/31 04:05:17;;;;;;;5.50;1.80;;;;;;;7.38;100.00;99146.30;101070;1309;59400;-68
2021/12/31 04:08:07;;;;;;;6.30;1.90;;;;;;;7.40;100.00;99145.61;101604;1310;59407;-68
2021/12/31 04:10:56;;;;;;;5.80;1.70;;;;;;;7.41;100.00;99149.80;101093;1309;71529;-67
2021/12/31 04:13:45;;;;;;;5.90;2.00;;;;;;;7.41;100.00;99149.08;100832;1309;67890;-67
2021/12/31 04:16:34;;;;;;;5.90;1.80;;;;;;;7.41;100.00;99156.10;101119;1316;72148;-67
2021/12/31 04:19:23;;;;;;;5.20;1.80;;;;;;;7.41;100.00;99157.90;101083;1309;59439;-66
2021/12/31 04:22:13;;;;;;;5.50;1.90;;;;;;;7.40;100.00;99159.18;100933;1309;59387;-67
2021/12/31 04:25:02;;;;;;;5.80;2.10;;;;;;;7.40;100.00;99163.76;101220;1316;71215;-67
2021/12/31 04:27:51;;;;;;;5.20;1.70;;;;;;;7.42;100.00;99164.20;101188;1317;67990;-67
2021/12/31 04:30:39;;;;;;;5.90;2.00;;;;;;;7.43;100.00;99162.52;101170;1315;73496;-68
2021/12/31 04:33:28;;;;;;;5.60;1.70;;;;;;;7.44;100.00;99162.63;100842;1316;59394;-67
2021/12/31 04:36:16;;;;;;;5.40;1.60;;;;;;;7.45;100.00;99163.77;101152;1309;60822;-68
2021/12/31 04:39:06;;;;;;;5.30;1.50;;;;;;;7.45;100.00;99162.36;101403;1317;72793;-67
2021/12/31 04:41:54;;;;;;;5.00;1.50;;;;;;;7.45;100.00;99150.86;101294;1309;66600;-68
2021/12/31 04:44:43;;;;;;;5.00;1.60;;;;;;;7.46;100.00;99147.46;101021;1313;73046;-67
2021/12/31 04:47:32;;;;;;;5.90;1.50;;;;;;;7.46;100.00;99141.08;101055;1307;60027;-69
2021/12/31 04:50:21;;;;;;;4.70;1.40;;;;;;;7.48;100.00;99134.91;101046;1310;61096;-70
2021/12/31 04:53:09;;;;;;;5.50;1.50;;;;;;;7.50;100.00;99138.27;101096;1309;71202;-70
2021/12/31 04:55:58;;;;;;;5.70;1.60;;;;;;;7.50;100.00;99128.54;101054;1313;68111;-69
2021/12/31 04:58:47;;;;;;;5.10;1.20;;;;;;;7.52;100.00;99131.10;101508;1309;72877;-70
2021/12/31 05:01:36;;;;;;;4.70;1.20;;;;;;;7.53;100.00;99126.94;100954;1310;59391;-68
2021/12/31 05:04:25;;;;;;;4.60;1.40;;;;;;;7.55;100.00;99131.59;101554;1313;59403;-70
2021/12/31 05:07:14;;;;;;;5.30;1.50;;;;;;;7.55;100.00;99136.33;101038;1309;72186;-69
2021/12/31 05:10:04;;;;;;;5.60;1.40;;;;;;;7.56;100.00;99133.27;101068;1309;67392;-69
2021/12/31 05:12:55;;;;;;;6.00;1.50;;;;;;;7.57;100.00;99128.91;101868;1315;74815;-70
2021/12/31 05:15:46;;;;;;;5.50;1.80;;;;;;;7.58;100.00;99125.32;101615;1310;59275;-69
2021/12/31 05:18:34;;;;;;;5.40;1.80;;;;;;;7.61;100.00;99132.88;101619;1310;59412;-69
2021/12/31 05:21:22;;;;;;;5.50;1.70;;;;;;;7.62;100.00;99136.61;101237;1310;71335;-70
2021/12/31 05:24:14;;;;;;;5.30;1.70;;;;;;;7.64;100.00;99137.88;101806;1309;66887;-69
2021/12/31 05:27:03;;;;;;;5.50;1.60;;;;;;;7.65;100.00;99135.02;101788;1309;71788;-69
2021/12/31 05:29:52;;;;;;;5.40;1.70;;;;;;;7.66;100.00;99130.67;101590;1310;59543;-70
2021/12/31 05:32:40;;;;;;;5.40;1.70;;;;;;;7.66;100.00;99129.92;101664;1310;59374;-70
2021/12/31 05:35:29;;;;;;;6.10;1.80;;;;;;;7.70;100.00;99137.77;101454;1309;72684;-69
2021/12/31 05:38:18;;;;;;;5.30;1.70;;;;;;;7.70;100.00;99130.17;101593;1310;69270;-71
2021/12/31 05:41:07;;;;;;;5.90;1.70;;;;;;;7.74;100.00;99138.16;101528;1310;73101;-69
2021/12/31 05:43:55;;;;;;;6.40;2.00;;;;;;;7.76;100.00;99134.98;101596;1310;60339;-70
2021/12/31 05:46:48;;;;;;;5.30;1.80;;;;;;;7.77;100.00;99132.06;101329;1309;59451;-69
2021/12/31 05:49:39;;;;;;;5.10;1.60;;;;;;;7.78;100.00;99134.45;101519;1309;72951;-69
2021/12/31 05:52:27;;;;;;;5.40;1.50;;;;;;;7.79;100.00;99131.19;101303;1310;68356;-69
2021/12/31 05:55:16;;;;;;;5.70;2.00;;;;;;;7.81;100.00;99127.89;101682;1305;71753;-70
2021/12/31 05:58:05;;;;;;;5.50;1.70;;;;;;;7.82;100.00;99131.31;101502;1310;59382;-70
2021/12/31 06:00:53;;;;;;;5.70;1.90;;;;;;;7.84;100.00;99130.66;101892;1310;59365;-69
2021/12/31 06:03:42;;;;;;;5.60;1.80;;;;;;;7.86;100.00;99133.68;101705;1311;73744;-69
2021/12/31 06:06:30;;;;;;;5.90;2.00;;;;;;;7.89;100.00;99133.98;101406;1313;67830;-69
2021/12/31 06:09:18;;;;;;;6.00;2.00;;;;;;;7.90;100.00;99130.30;101538;1305;73324;-70
2021/12/31 06:12:08;;;;;;;5.60;1.80;;;;;;;7.92;100.00;99137.06;101396;1308;59854;-70
2021/12/31 06:14:59;;;;;;;6.80;2.00;;;;;;;7.94;100.00;99135.52;101649;1313;59361;-71
2021/12/31 06:17:49;;;;;;;5.60;1.90;;;;;;;7.97;100.00;99139.84;101029;1310;72604;-70
2021/12/31 06:20:40;;;;;;;6.00;1.90;;;;;;;7.99;100.00;99144.64;101415;1306;65498;-70
2021/12/31 06:23:29;;;;;;;5.50;1.70;;;;;;;8.03;100.00;99140.80;101351;1312;73034;-70
2021/12/31 06:26:24;;;;;;;7.00;2.00;;;;;;;8.04;100.00;99142.45;101314;1309;59313;-70
2021/12/31 06:29:12;;;;;;;6.00;2.10;;;;;;;8.05;100.00;99140.81;101660;1309;59325;-70
2021/12/31 06:32:01;;;;;;;6.00;2.30;;;;;;;8.06;100.00;99145.25;101411;1313;71360;-70
2021/12/31 06:34:50;;;;;;;5.80;1.90;;;;;;;8.08;100.00;99143.35;101502;1305;66065;-70
2021/12/31 06:37:40;;;;;;;6.10;2.10;;;;;;;8.10;100.00;99130.98;101601;1309;73252;-70
2021/12/31 06:40:31;;;;;;;5.70;2.00;;;;;;;8.12;100.00;99132.73;101617;1309;59865;-69
2021/12/31 06:43:20;;;;;;;5.80;2.10;;;;;;;8.13;100.00;99132.14;101703;1309;59667;-69
2021/12/31 06:46:09;;;;;;;5.80;2.00;;;;;;;8.13;100.00;99128.61;101664;1309;72256;-69
2021/12/31 06:48:57;;;;;;;6.30;2.10;;;;;;;8.13;100.00;99120.83;101537;1309;68463;-69
2021/12/31 06:51:46;;;;;;;5.90;2.20;;;;;;;8.13;100.00;99123.86;101373;1309;73853;-69
2021/12/31 06:54:36;;;;;;;6.00;2.20;;;;;;;8.14;100.00;99125.69;101406;1309;60196;-70
2021/12/31 06:57:25;;;;;;;6.70;2.60;;;;;;;8.16;100.00;99120.78;101975;1309;60247;-70
2021/12/31 07:00:13;;;;;;;6.50;2.90;;;;;;;8.17;100.00;99120.13;101937;1309;72223;-69
2021/12/31 07:03:11;;;;;;;7.20;2.80;;;;;;;8.18;100.00;99128.77;101795;1312;68688;-70
2021/12/31 07:05:59;;;;;;;6.60;2.70;;;;;;;8.18;100.00;99125.55;101365;1309;73330;-70
2021/12/31 07:08:48;;;;;;;7.30;2.90;;;;;;;8.20;100.00;99121.35;101614;1309;60083;-68
2021/12/31 07:11:38;;;;;;;6.50;2.70;;;;;;;8.19;100.00;99123.88;101527;1310;59280;-70
2021/12/31 07:14:26;;;;;;;7.40;3.00;;;;;;;8.19;100.00;99128.63;101295;1310;72667;-71
2021/12/31 07:17:16;;;;;;;6.90;3.00;;;;;;;8.21;100.00;99136.84;101796;1309;67230;-69
2021/12/31 07:20:06;;;;;;;7.00;3.00;;;;;;;8.21;100.00;99134.36;101542;1309;72869;-70
2021/12/31 07:22:54;;;;;;;6.40;2.40;;;;;;;8.25;100.00;99140.90;100889;1315;59546;-70
2021/12/31 07:25:43;;;;;;;7.00;2.60;;;;;;;8.27;100.00;99144.06;101022;1309;60582;-69
2021/12/31 07:28:32;;;;;;;6.80;2.70;;;;;;;8.29;100.00;99150.86;101046;1310;71308;-69
2021/12/31 07:31:20;;;;;;;6.90;2.90;;;;;;;8.31;100.00;99160.73;101281;1309;68065;-70
2021/12/31 07:34:09;;;;;;;7.00;2.80;;;;;;;8.33;100.00;99158.12;101301;1310;73112;-69
2021/12/31 07:36:57;;;;;;;6.60;2.60;;;;;;;8.35;100.00;99160.59;101476;1309;59782;-70
2021/12/31 07:39:48;;;;;;;7.40;3.10;;;;;;;8.37;100.00;99160.25;101709;1309;61272;-70
2021/12/31 07:42:37;;;;;;;7.10;3.00;;;;;;;8.38;100.00;99158.73;101676;1309;72629;-69
2021/12/31 07:45:25;;;;;;;6.40;2.60;;;;;;;8.40;100.00;99162.84;101648;1309;69401;-70
2021/12/31 07:48:14;;;;;;;6.70;2.60;;;;;;;8.40;100.00;99157.48;101508;1315;72146;-70
2021/12/31 07:51:03;;;;;;;7.10;2.90;;;;;;;8.42;100.00;99160.90;101747;1309;59259;-70
2021/12/31 07:53:51;;;;;;;6.30;2.60;;;;;;;8.44;100.00;99163.06;101709;1309;60426;-69
2021/12/31 07:56:40;;;;;;;8.30;3.40;;;;;;;8.43;100.00;99162.71;101973;1309;72826;-70
2021/12/31 07:59:29;;;;;;;7.80;3.10;;;;;;;8.45;100.00;99159.24;101539;1309;68449;-70
2021/12/31 08:02:17;;;;;;;8.00;3.20;;;;;;;8.47;100.00;99158.73;101346;1309;73034;-70
2021/12/31 08:05:07;;;;;;;7.80;3.10;;;;;;;8.47;100.00;99160.35;101705;1309;59121;-70
2021/12/31 08:07:56;;;;;;;6.60;2.80;;;;;;;8.47;100.00;99158.19;101497;1310;59287;-70
2021/12/31 08:10:44;;;;;;;6.90;3.10;;;;;;;8.47;100.00;99161.90;101388;1312;72388;-69
2021/12/31 08:13:44;;;;;;;6.50;2.60;;;;;;;8.46;100.00;99158.28;101292;1309;66872;-71
2021/12/31 08:16:32;;;;;;;6.50;2.40;;;;;;;8.46;100.00;99159.38;100976;1310;71753;-70
2021/12/31 08:19:21;;;;;;;6.30;2.40;;;;;;;8.45;100.00;99156.40;100970;1312;59218;-70
2021/12/31 08:22:09;;;;;;;7.40;2.60;;;;;;;8.44;100.00;99154.02;101577;1308;59275;-69
2021/12/31 08:24:58;;;;;;;6.20;2.20;;;;;;;8.43;100.00;99155.14;101504;1312;72439;-72
2021/12/31 08:27:47;;;;;;;5.70;2.10;;;;;;;8.43;100.00;99153.05;101375;1310;68019;-72
2021/12/31 08:30:35;;;;;;;6.30;2.50;;;;;;;8.44;100.00;99149.27;101108;1310;73056;-69
2021/12/31 08:33:26;;;;;;;6.10;2.30;;;;;;;8.45;100.00;99142.11;101192;1312;59374;-69
2021/12/31 08:36:14;;;;;;;7.40;2.60;;;;;;;8.44;100.00;99138.10;101197;1309;59426;-68
2021/12/31 08:39:07;;;;;;;7.10;2.40;;;;;;;8.44;100.00;99143.23;101434;1309;72539;-70
2021/12/31 08:41:56;;;;;;;6.60;2.70;;;;;;;8.45;100.00;99139.30;101712;1309;67026;-71
2021/12/31 08:44:45;;;;;;;7.20;2.70;;;;;;;8.45;100.00;99136.66;101610;1305;72053;-73
2021/12/31 08:47:34;;;;;;;7.80;2.70;;;;;;;8.46;100.00;99135.45;101581;1309;59786;-69
2021/12/31 08:50:23;;;;;;;6.60;2.50;;;;;;;8.50;100.00;99135.68;101660;1309;59400;-69
2021/12/31 08:53:13;;;;;;;6.90;2.60;;;;;;;8.54;100.00;99138.05;101347;1308;69797;-66
2021/12/31 08:56:02;;;;;;;6.20;2.50;;;;;;;8.58;100.00;99140.50;100916;1316;68519;-68
2021/12/31 08:58:50;;;;;;;8.00;2.50;;;;;;;8.60;100.00;99133.25;101181;1313;73451;-71
2021/12/31 09:01:39;;;;;;;6.40;2.40;;;;;;;8.62;100.00;99143.21;101423;1316;59413;-76
2021/12/31 09:04:28;;;;;;;6.70;2.40;;;;;;;8.63;100.00;99146.23;101001;1310;60803;-71
2021/12/31 09:07:16;;;;;;;6.80;2.50;;;;;;;8.63;100.00;99142.35;101210;1312;72603;-74
2021/12/31 09:10:08;;;;;;;6.50;2.20;;;;;;;8.63;100.00;99140.06;101829;1310;67898;-75
2021/12/31 09:12:57;;;;;;;6.30;2.30;;;;;;;8.64;100.00;99138.54;101786;1310;71724;-72
2021/12/31 09:15:47;;;;;;;6.70;2.40;;;;;;;8.68;100.00;99141.64;101163;1316;59763;-73
2021/12/31 09:18:36;;;;;;;7.60;3.00;;;;;;;8.67;100.00;99142.38;101218;1312;59384;-72
2021/12/31 09:21:25;;;;;;;9.20;3.00;;;;;;;8.66;100.00;99142.29;101185;1313;72325;-74
2021/12/31 09:24:14;;;;;;;8.00;2.80;;;;;;;8.64;100.00;99141.02;101734;1305;67094;-75
2021/12/31 09:27:04;;;;;;;9.10;3.00;;;;;;;8.63;100.00;99139.33;101466;1309;73353;-74
2021/12/31 09:29:53;;;;;;;6.90;2.70;;;;;;;8.64;100.00;99137.19;101337;1312;59773;-74
2021/12/31 09:32:42;;;;;;;7.60;2.70;;;;;;;8.64;100.00;99130.10;100810;1313;59484;-73
2021/12/31 09:35:32;;;;;;;9.30;3.20;;;;;;;8.67;100.00;99120.80;100998;1316;71615;-74
2021/12/31 09:38:20;;;;;;;7.70;3.00;;;;;;;8.65;100.00;99113.20;101413;1315;67702;-75
2021/12/31 09:41:09;;;;;;;7.60;3.00;;;;;;;8.65;100.00;99111.27;101218;1312;73126;-74
2021/12/31 09:43:58;;;;;;;9.20;4.30;;;;;;;8.65;100.00;99103.30;100987;1312;59554;-74
2021/12/31 09:46:47;;;;;;;8.90;3.60;;;;;;;8.66;100.00;99101.83;100814;1317;59490;-74
2021/12/31 09:49:38;;;;;;;9.10;3.80;;;;;;;8.65;100.00;99098.84;100836;1315;71382;-74
2021/12/31 09:52:31;;;;;;;9.90;4.80;;;;;;;8.66;100.00;99093.63;100637;1315;67905;-73
2021/12/31 09:55:47;;;;;;;11.50;4.80;;;;;;;8.66;100.00;99088.93;100926;1313;72604;-75
2021/12/31 09:58:37;;;;;;;10.30;4.80;;;;;;;8.63;100.00;99088.25;100960;1312;59403;-75
2021/12/31 10:01:26;;;;;;;11.70;5.70;;;;;;;8.60;100.00;99087.47;100779;1318;60479;-74
2021/12/31 10:04:16;;;;;;;12.10;5.70;;;;;;;8.58;100.00;99085.48;101103;1315;72473;-74
2021/12/31 10:07:11;;;;;;;15.40;7.00;;;;;;;8.57;100.00;99081.20;101508;1309;67367;-74
2021/12/31 10:10:15;;;;;;;12.40;5.40;;;;;;;8.55;100.00;99076.04;101099;1309;72940;-74
2021/12/31 10:13:07;;;;;;;11.30;5.30;;;;;;;8.51;100.00;99075.48;100982;1315;59406;-73
2021/12/31 10:15:59;;;;;;;11.20;5.40;;;;;;;8.50;100.00;99071.67;101156;1313;60788;-74
2021/12/31 10:19:05;;;;;;;12.00;5.30;;;;;;;8.51;100.00;99068.45;101582;1310;71259;-74
2021/12/31 10:21:56;;;;;;;11.20;4.80;;;;;;;8.54;100.00;99062.16;101288;1309;65786;-74
2021/12/31 10:24:47;;;;;;;12.30;5.40;;;;;;;8.56;100.00;99060.82;100852;1312;75629;-73
2021/12/31 10:27:36;;;;;;;12.10;5.90;;;;;;;8.58;100.00;99052.79;100986;1312;59318;-74
2021/12/31 10:30:26;;;;;;;14.90;8.50;;;;;;;8.61;100.00;99041.44;101215;1310;59381;-75
2021/12/31 10:33:15;;;;;;;14.20;7.00;;;;;;;8.65;100.00;99040.20;101066;1310;72560;-73
2021/12/31 10:36:04;;;;;;;12.20;6.30;;;;;;;8.70;100.00;99037.66;101421;1312;66699;-74
2021/12/31 10:38:53;;;;;;;14.40;6.10;;;;;;;8.72;100.00;99041.73;101403;1310;72995;-72
2021/12/31 10:41:42;;;;;;;14.40;6.30;;;;;;;8.72;100.00;99046.89;101315;1312;59579;-73
2021/12/31 10:44:52;;;;;;;13.00;5.30;;;;;;;8.77;100.00;99041.48;101265;1309;60670;-74
2021/12/31 10:47:48;;;;;;;10.80;4.70;;;;;;;8.84;100.00;99029.71;101181;1309;71137;-77
2021/12/31 10:50:51;;;;;;;11.40;5.20;;;;;;;8.89;100.00;99026.31;101382;1310;67044;-75
2021/12/31 10:53:43;;;;;;;11.40;5.20;;;;;;;8.90;100.00;99026.60;101153;1301;73122;-75
2021/12/31 10:56:41;;;;;;;9.80;5.00;;;;;;;8.93;100.00;99028.94;100994;1309;59967;-75
2021/12/31 10:59:36;;;;;;;9.60;4.50;;;;;;;8.95;100.00;99029.88;101790;1309;59672;-75
2021/12/31 11:02:25;;;;;;;10.20;4.50;;;;;;;8.97;100.00;99023.24;101609;1309;72885;-75
2021/12/31 11:05:21;;;;;;;9.80;4.00;;;;;;;9.00;100.00;99019.80;100969;1309;68491;-75
2021/12/31 11:08:13;;;;;;;9.10;4.20;;;;;;;9.03;100.00;99020.63;101316;1310;70294;-76
2021/12/31 11:11:09;;;;;;;9.30;3.60;;;;;;;9.06;100.00;99019.48;101530;1308;59390;-76
2021/12/31 11:14:00;;;;;;;8.20;3.20;;;;;;;9.08;100.00;99014.70;101332;1312;61106;-74
2021/12/31 11:17:06;;;;;;;9.60;3.00;;;;;;;9.13;100.00;99013.37;101322;1310;72522;-74
2021/12/31 11:20:05;;;;;;;7.60;2.90;;;;;;;9.16;100.00;99013.78;101405;1309;67749;-75
2021/12/31 11:23:03;;;;;;;8.20;2.80;;;;;;;9.19;100.00;99014.40;101073;1312;73618;-75
2021/12/31 11:26:13;;;;;;;6.50;2.10;;;;;;;9.22;100.00;99010.99;101461;1310;59114;-75
2021/12/31 11:29:18;;;;;;;6.40;2.10;;;;;;;9.25;100.00;99008.33;101303;1313;59616;-74
2021/12/31 11:32:10;;;;;;;6.20;1.90;;;;;;;9.27;100.00;99010.56;101204;1310;73052;-75
2021/12/31 11:35:38;;;;;;;5.90;2.00;;;;;;;9.27;100.00;99002.06;100897;1315;66869;-75
2021/12/31 11:38:27;;;;;;;7.70;2.10;;;;;;;9.32;100.00;99000.90;100735;1316;70583;-75
2021/12/31 11:41:24;;;;;;;6.70;2.00;;;;;;;9.36;100.00;98994.20;101126;1315;59765;-75
2021/12/31 11:44:19;;;;;;;7.20;2.30;;;;;;;9.39;100.00;98987.16;100826;1312;61328;-75
2021/12/31 11:47:18;;;;;;;6.30;2.10;;;;;;;9.40;100.00;98982.30;100595;1312;72797;-74
2021/12/31 11:51:01;;;;;;;8.40;2.40;;;;;;;9.41;100.00;98975.84;101224;1315;68227;-75
2021/12/31 11:54:00;;;;;;;8.00;2.20;;;;;;;9.41;100.00;98960.08;99858;1324;70522;-74
2021/12/31 11:56:54;;;;;;;7.20;2.20;;;;;;;9.41;100.00;98953.41;100309;1324;60405;-75
2021/12/31 11:59:46;;;;;;;7.70;2.30;;;;;;;9.42;100.00;98947.84;100344;1321;60760;-74
2021/12/31 12:02:40;;;;;;;7.90;2.10;;;;;;;9.44;100.00;98948.17;100372;1320;70255;-74
2021/12/31 12:05:42;;;;;;;7.90;2.20;;;;;;;9.46;100.00;98940.38;100176;1324;70418;-75
2021/12/31 12:08:50;;;;;;;8.30;2.00;;;;;;;9.49;100.00;98936.90;100210;1327;72015;-74
2021/12/31 12:12:15;;;;;;;7.50;1.80;;;;;;;9.50;100.00;98929.38;100328;1327;60880;-74
2021/12/31 12:15:19;;;;;;;7.40;2.10;;;;;;;9.50;100.00;98926.69;100148;1326;59351;-74
2021/12/31 12:18:12;;;;;;;7.70;2.40;;;;;;;9.52;100.00;98923.50;100132;1326;72288;-75
2021/12/31 12:21:03;;;;;;;6.80;1.80;;;;;;;9.51;100.00;98917.05;99959;1327;68340;-74
2021/12/31 12:23:52;;;;;;;6.70;2.10;;;;;;;9.50;100.00;98914.61;100000;1327;73207;-74
2021/12/31 12:26:45;;;;;;;5.90;2.00;;;;;;;9.49;100.00;98916.16;99988;1329;59430;-75
2021/12/31 12:29:36;;;;;;;6.80;2.00;;;;;;;9.49;100.00;98914.94;99792;1327;59854;-73
2021/12/31 12:32:35;;;;;;;6.40;1.90;;;;;;;9.50;100.00;98918.70;100178;1324;75122;-77
2021/12/31 12:35:36;;;;;;;6.40;1.80;;;;;;;9.49;100.00;98915.44;100456;1324;66918;-76
2021/12/31 12:38:30;;;;;;;5.70;1.60;;;;;;;9.49;100.00;98917.89;100222;1316;71367;-76
2021/12/31 12:41:20;;;;;;;6.10;1.50;;;;;;;9.49;100.00;98918.83;100604;1321;58928;-76
2021/12/31 12:44:10;;;;;;;5.00;1.50;;;;;;;9.49;100.00;98916.02;100444;1324;60922;-76
2021/12/31 12:47:00;;;;;;;5.10;1.40;;;;;;;9.50;100.00;98911.36;100001;1323;70895;-77
2021/12/31 12:50:04;;;;;;;6.00;1.60;;;;;;;9.50;100.00;98909.03;100377;1319;66807;-76
2021/12/31 12:52:57;;;;;;;5.20;1.40;;;;;;;9.51;100.00;98910.67;100713;1315;73209;-75
2021/12/31 12:55:48;;;;;;;6.30;1.80;;;;;;;9.50;100.00;98912.39;100733;1312;60031;-75
2021/12/31 12:58:48;;;;;;;5.80;1.70;;;;;;;9.49;100.00;98906.77;100835;1312;59285;-75
2021/12/31 13:01:46;;;;;;;6.10;1.80;;;;;;;9.51;100.00;98906.29;100808;1314;72448;-76
2021/12/31 13:04:38;;;;;;;6.20;1.90;;;;;;;9.52;100.00;98904.16;101359;1309;68728;-76
2021/12/31 13:07:28;;;;;;;8.20;2.30;;;;;;;9.52;100.00;98903.65;101595;1310;73017;-75
2021/12/31 13:10:22;;;;;;;7.00;2.10;;;;;;;9.53;100.00;98907.30;100981;1315;60483;-76
2021/12/31 13:13:19;;;;;;;6.50;1.80;;;;;;;9.52;100.00;98904.02;100658;1312;60683;-75
2021/12/31 13:16:13;;;;;;;7.60;2.10;;;;;;;9.55;100.00;98904.27;101210;1312;71363;-76
2021/12/31 13:19:07;;;;;;;6.40;1.90;;;;;;;9.55;100.00;98899.35;101188;1315;68485;-76
2021/12/31 13:22:02;;;;;;;6.20;2.10;;;;;;;9.56;100.00;98901.40;100896;1312;71836;-75